Orient Hill, West Virginia
Current Conditions -  °F | °C
As of 3:35 PM on Sunday 21 Dec 2014 (Local Time) from KLWB Reporting Station
Clear Clear  
Wind Chill: 44°   Ceiling: Unl
Heat Index: 46°   Visibility: 10mi
Dew Point: 28°   Wind: 5mph
Humidity: 49%   Direction: 220°SW
Pressure: 30.15"   Gusts: NA
Location:  37.9921°N, 80.6788°W
Report Text: KLWB 212035Z AUTO 22004KT 10SM CLR 08/M02 A3015 RMK AO2 T00801021
Loading
Personal Weather Stations






























Interactive Weather Map New forecast layout! Learn more

10-Day Weather Forecast

Advertisements
Track Severe Weather on mobile